Time;durP1;ratioP1;P1;durP2;ratioP2;P2;SDS_P1;SDS_P2;PMS_P1;PMS_P2;Temp;Humidity;BMP_temperature;BMP_pressure;BME280_temperature;BME280_humidity;BME280_pressure;Samples;Min_cycle;Max_cycle;Signal;HPM_P1;HPM_P2
2022/08/11 00:00:44;;;;;;;11.25;10.15;;;;;;;21.78;85.13;100479.59;1733605;82;20861;-93
2022/08/11 00:03:12;;;;;;;10.80;8.83;;;;;;;21.77;85.20;100477.94;1720498;83;21911;-91
2022/08/11 00:05:47;;;;;;;9.83;8.80;;;;;;;21.75;85.14;100479.12;1733778;82;20972;-93
2022/08/11 00:08:25;;;;;;;10.53;9.35;;;;;;;21.75;85.23;100479.12;1720532;83;20989;-92
2022/08/11 00:10:57;;;;;;;11.28;10.10;;;;;;;21.72;85.18;100479.78;1733336;82;21044;-93
2022/08/11 00:13:35;;;;;;;10.55;9.55;;;;;;;21.70;85.32;100476.45;1733810;82;20940;-94
2022/08/11 00:16:04;;;;;;;12.47;10.40;;;;;;;21.69;85.22;100485.95;1720677;82;21322;-94
2022/08/11 00:18:42;;;;;;;9.23;8.28;;;;;;;21.66;85.35;100483.63;1733659;82;20988;-93
2022/08/11 00:21:10;;;;;;;10.90;9.83;;;;;;;21.64;85.46;100491.79;1720770;83;20898;-94
2022/08/11 00:23:55;;;;;;;10.23;9.33;;;;;;;21.60;85.54;100482.44;1729430;82;20949;-92
2022/08/11 00:26:23;;;;;;;9.85;9.05;;;;;;;21.60;85.72;100479.77;1718111;83;20964;-94
2022/08/11 00:28:50;;;;;;;11.18;9.70;;;;;;;21.58;85.88;100479.61;1718014;83;21260;-95
2022/08/11 00:31:28;;;;;;;8.95;8.15;;;;;;;21.57;85.88;100479.30;1718411;83;20929;-94
2022/08/11 00:33:56;;;;;;;9.90;9.10;;;;;;;21.56;85.81;100487.78;1718207;83;21418;-93
2022/08/11 00:36:28;;;;;;;10.20;9.40;;;;;;;21.54;85.96;100483.10;1717976;83;21434;-93
2022/08/11 00:38:58;;;;;;;11.08;10.03;;;;;;;21.52;85.99;100486.44;1718079;83;21411;-95
2022/08/11 00:41:56;;;;;;;9.60;8.80;;;;;;;21.50;86.05;100489.80;1696321;83;21151;-93
2022/08/11 00:44:58;;;;;;;11.15;10.08;;;;;;;21.46;85.94;100485.80;1717881;83;21473;-94
2022/08/11 00:47:54;;;;;;;9.78;8.88;;;;;;;21.41;86.21;100484.95;1693293;83;20905;-94
2022/08/11 00:50:52;;;;;;;9.63;8.85;;;;;;;21.39;86.46;100488.73;1717872;82;21459;-93
2022/08/11 00:53:55;;;;;;;9.88;8.93;;;;;;;21.36;86.50;100493.91;1716747;82;20901;-94
2022/08/11 00:56:36;;;;;;;10.88;9.85;;;;;;;21.34;86.70;100487.91;1696811;83;21156;-93
2022/08/11 00:59:38;;;;;;;9.80;8.90;;;;;;;21.30;86.71;100481.25;1717951;83;21024;-93
2022/08/11 01:02:40;;;;;;;11.05;10.00;;;;;;;21.28;86.64;100484.58;1705867;83;20873;-93
2022/08/11 01:05:46;;;;;;;10.78;9.80;;;;;;;21.25;86.87;100486.23;1718632;83;20901;-93
2022/08/11 01:08:49;;;;;;;10.98;8.83;;;;;;;21.22;87.10;100484.73;1717845;83;21454;-92
2022/08/11 01:11:55;;;;;;;12.65;9.18;;;;;;;21.19;87.24;100481.06;1718088;83;21301;-94
2022/08/11 01:15:05;;;;;;;9.60;8.60;;;;;;;21.16;87.18;100474.71;1717973;83;20999;-93
2022/08/11 01:18:03;;;;;;;9.58;8.68;;;;;;;21.14;87.38;100478.04;1717798;83;20926;-95
2022/08/11 01:21:12;;;;;;;15.48;9.60;;;;;;;21.10;87.50;100476.73;1717947;83;21016;-94
2022/08/11 01:23:56;;;;;;;9.80;8.90;;;;;;;21.08;87.58;100465.39;1718057;83;20996;-92
2022/08/11 01:26:59;;;;;;;9.98;9.08;;;;;;;21.04;87.70;100466.70;1718620;83;21091;-92
2022/08/11 01:30:08;;;;;;;10.72;9.83;;;;;;;21.00;87.84;100458.19;1718409;83;21465;-94
2022/08/11 01:33:10;;;;;;;12.30;9.73;;;;;;;20.99;87.89;100462.38;1718678;83;20905;-94
2022/08/11 01:36:33;;;;;;;12.35;9.63;;;;;;;20.96;88.10;100458.69;1718071;83;20917;-94
2022/08/11 01:39:17;;;;;;;10.53;9.30;;;;;;;20.94;88.15;100461.50;1718605;83;20901;-93
2022/08/11 01:45:30;;;;;;;9.83;9.10;;;;;;;20.87;88.20;100461.83;1718509;83;21008;-93
2022/08/11 01:48:11;;;;;;;11.12;10.10;;;;;;;20.85;88.39;100472.67;1697835;83;21384;-93
2022/08/11 01:51:11;;;;;;;10.43;9.53;;;;;;;20.84;88.49;100476.83;1717931;83;20952;-92
2022/08/11 01:54:10;;;;;;;10.20;9.33;;;;;;;20.84;88.60;100474.16;1718239;83;21394;-92
2022/08/11 01:57:00;;;;;;;10.38;9.13;;;;;;;20.82;88.64;100469.48;1718297;82;21178;-93
2022/08/11 01:59:36;;;;;;;10.58;9.38;;;;;;;20.82;88.64;100470.31;1719368;83;20929;-92
2022/08/11 02:02:44;;;;;;;10.82;9.65;;;;;;;20.82;88.64;100469.48;1719602;83;20957;-92
2022/08/11 02:04:58;;;;;;;11.20;9.83;;;;;;;20.80;88.67;100470.14;1717000;82;20917;-90
2022/08/11 02:08:05;;;;;;;15.50;10.60;;;;;;;20.80;88.64;100470.14;1719948;82;20973;-91
2022/08/11 02:13:48;;;;;;;12.13;10.08;;;;;;;20.77;88.69;100475.81;1719955;82;20962;-91
2022/08/11 02:16:40;;;;;;;11.83;9.13;;;;;;;20.73;88.64;100472.62;1719967;82;20914;-90
2022/08/11 02:25:29;;;;;;;10.28;9.25;;;;;;;20.63;88.79;100475.44;1722237;82;21261;-90
2022/08/11 02:28:10;;;;;;;10.80;9.80;;;;;;;20.62;88.94;100483.58;1722503;82;20850;-91
2022/08/11 02:30:41;;;;;;;15.95;12.53;;;;;;;20.57;88.85;100486.73;1735631;82;20940;-91
2022/08/11 02:33:24;;;;;;;69.60;43.10;;;;;;;20.54;89.02;100484.84;1722377;82;20996;-91
2022/08/11 02:36:09;;;;;;;57.93;38.48;;;;;;;20.51;88.94;100487.33;1735371;82;20921;-91
2022/08/11 02:39:03;;;;;;;71.90;44.93;;;;;;;20.47;89.08;100486.80;1722485;82;21334;-92
2022/08/11 02:45:13;;;;;;;30.20;23.60;;;;;;;20.42;89.05;100497.11;1722565;82;20972;-91
2022/08/11 02:51:46;;;;;;;15.25;13.62;;;;;;;20.39;89.27;100490.78;1735613;82;21122;-89
2022/08/11 02:54:49;;;;;;;21.27;13.65;;;;;;;20.40;89.73;100505.76;1722451;82;21192;-90
2022/08/11 02:57:35;;;;;;;14.85;12.05;;;;;;;20.41;90.13;100512.77;1735145;82;21219;-91
2022/08/11 03:00:12;;;;;;;12.68;10.98;;;;;;;20.44;90.24;100512.44;1722640;82;20960;-87
2022/08/11 03:03:17;;;;;;;13.60;11.75;;;;;;;20.46;90.14;100521.11;1735363;82;20909;-89
2022/08/11 03:06:09;;;;;;;10.00;9.08;;;;;;;20.47;90.04;100514.77;1722987;82;21220;-90
2022/08/11 03:08:55;;;;;;;12.03;10.65;;;;;;;20.50;90.20;100512.31;1707156;82;21181;-90
2022/08/11 03:18:19;;;;;;;10.58;9.63;;;;;;;20.63;89.90;100512.73;1721455;82;21000;-91
2022/08/11 03:21:11;;;;;;;10.90;9.10;;;;;;;20.68;89.91;100518.41;1721563;83;20925;-90
2022/08/11 03:24:00;;;;;;;9.33;8.53;;;;;;;20.73;89.74;100513.94;1734126;82;21331;-90
2022/08/11 03:26:43;;;;;;;10.53;9.05;;;;;;;20.77;89.56;100515.79;1734260;82;20901;-89
2022/08/11 03:29:24;;;;;;;14.27;9.20;;;;;;;20.81;89.35;100524.64;1734019;82;20937;-89
2022/08/11 03:32:28;;;;;;;11.15;9.28;;;;;;;20.83;88.75;100530.64;1720011;83;21513;-91
2022/08/11 03:34:56;;;;;;;10.75;9.58;;;;;;;20.82;88.76;100535.62;1733418;82;21031;-89
2022/08/11 03:37:53;;;;;;;11.30;10.08;;;;;;;20.84;88.81;100525.63;1720479;83;21170;-91
2022/08/11 03:44:11;;;;;;;11.35;10.20;;;;;;;20.91;88.37;100537.82;1668035;86;21025;-92
2022/08/11 03:47:05;;;;;;;12.82;10.38;;;;;;;20.97;88.22;100549.18;1667987;85;21059;-90
2022/08/11 03:49:53;;;;;;;10.20;9.03;;;;;;;21.06;87.83;100542.05;1667711;85;20998;-89
2022/08/11 03:52:34;;;;;;;10.82;9.83;;;;;;;21.14;87.55;100540.71;1667839;85;21296;-92
2022/08/11 03:55:34;;;;;;;9.68;8.70;;;;;;;21.21;86.86;100539.56;1667397;86;20855;-90
2022/08/11 03:58:42;;;;;;;9.03;8.13;;;;;;;21.27;86.48;100543.74;1667389;85;22316;-92
2022/08/11 04:01:46;;;;;;;9.83;7.87;;;;;;;21.36;86.03;100541.09;1667424;85;20867;-90
2022/08/11 04:04:41;;;;;;;9.80;8.80;;;;;;;21.40;85.28;100543.78;1667677;85;20998;-90
2022/08/11 04:07:13;;;;;;;9.93;8.93;;;;;;;21.42;84.89;100531.97;1667363;85;21187;-91
2022/08/11 04:10:15;;;;;;;9.25;8.38;;;;;;;21.45;84.78;100532.13;1652456;85;20900;-92
2022/08/11 04:13:03;;;;;;;10.20;9.18;;;;;;;21.47;84.61;100526.14;1614954;88;21026;-92
2022/08/11 04:16:29;;;;;;;10.23;9.33;;;;;;;21.47;84.48;100528.80;1567093;90;20959;-91
2022/08/11 04:19:20;;;;;;;9.70;8.25;;;;;;;21.51;84.40;100536.81;1535523;92;21027;-92
2022/08/11 04:21:55;;;;;;;9.40;8.68;;;;;;;21.59;84.57;100538.64;1535260;93;21188;-92
2022/08/11 04:24:39;;;;;;;12.03;8.10;;;;;;;21.68;84.53;100541.67;1536104;92;21046;-90
2022/08/11 04:27:40;;;;;;;10.55;9.40;;;;;;;21.78;84.44;100538.33;1569894;91;21029;-90
2022/08/11 04:30:38;;;;;;;10.18;8.65;;;;;;;21.93;84.41;100535.31;1541332;92;20951;-91
2022/08/11 04:33:42;;;;;;;9.15;8.23;;;;;;;22.14;83.73;100540.62;1541777;92;21014;-91
2022/08/11 04:40:33;;;;;;;14.25;7.62;;;;;;;22.52;82.18;100536.89;1542885;92;21110;-90
2022/08/11 04:43:34;;;;;;;9.90;7.87;;;;;;;22.76;81.37;100530.11;1555119;90;20964;-92
2022/08/11 04:46:26;;;;;;;13.55;8.55;;;;;;;22.97;80.49;100528.19;1597362;89;21525;-88
2022/08/11 05:02:18;;;;;;;12.30;8.93;;;;;;;23.96;73.70;100524.33;1694350;84;21416;-90
2022/08/11 05:05:31;;;;;;;10.50;9.38;;;;;;;24.29;71.27;100532.56;1693293;84;21424;-90
2022/08/11 05:08:30;;;;;;;13.28;9.20;;;;;;;24.50;69.16;100533.19;1694167;84;21270;-91
2022/08/11 05:11:08;;;;;;;10.60;8.90;;;;;;;24.81;67.13;100541.02;1692490;84;20907;-91
2022/08/11 05:36:52;;;;;;;9.65;8.43;;;;;;;29.28;50.72;100542.14;1717665;83;21880;-92
2022/08/11 05:56:20;;;;;;;14.68;8.73;;;;;;;31.38;41.66;100532.30;1718045;83;20890;-90
2022/08/11 05:58:50;;;;;;;15.43;9.73;;;;;;;31.13;41.60;100518.39;1717645;83;20925;-90
2022/08/11 06:01:26;;;;;;;9.40;8.08;;;;;;;30.81;41.86;100517.74;1718237;83;20842;-91
2022/08/11 06:04:42;;;;;;;10.18;9.05;;;;;;;30.43;42.43;100528.84;1799724;79;22473;-90
2022/08/11 06:07:11;;;;;;;9.83;8.83;;;;;;;30.05;42.82;100537.41;1759270;81;20971;-89
2022/08/11 06:09:50;;;;;;;12.05;8.78;;;;;;;29.77;43.11;100547.35;1696949;81;20868;-92
2022/08/11 06:12:24;;;;;;;11.15;9.30;;;;;;;29.50;43.79;100545.31;1726580;83;20927;-90
2022/08/11 06:14:55;;;;;;;10.65;9.63;;;;;;;29.28;44.01;100544.84;1725604;81;21404;-88
2022/08/11 06:17:29;;;;;;;12.68;9.15;;;;;;;29.06;43.93;100545.66;1725599;83;21034;-91
2022/08/11 06:20:10;;;;;;;12.85;10.32;;;;;;;28.85;44.28;100544.11;1725959;83;20947;-90
2022/08/11 06:22:36;;;;;;;16.10;10.65;;;;;;;28.63;44.86;100542.22;1653261;84;21343;-91
2022/08/11 06:25:03;;;;;;;14.73;10.20;;;;;;;28.42;45.59;100544.12;1722862;83;20920;-89
2022/08/11 06:27:32;;;;;;;17.48;10.55;;;;;;;28.26;46.19;100544.06;1722806;83;20912;-91
2022/08/11 06:29:59;;;;;;;15.98;11.10;;;;;;;28.09;46.69;100538.79;1722807;83;20976;-92
2022/08/11 06:32:28;;;;;;;14.60;10.58;;;;;;;27.96;47.05;100544.20;1720358;82;20956;-90
2022/08/11 06:35:13;;;;;;;15.50;10.68;;;;;;;27.81;47.18;100545.72;1722777;82;21455;-90
2022/08/11 06:38:05;;;;;;;15.00;11.08;;;;;;;27.62;46.97;100538.77;1722854;83;20873;-91
2022/08/11 06:44:12;;;;;;;15.30;12.30;;;;;;;27.37;48.43;100555.20;1722828;82;20877;-90
2022/08/11 06:46:47;;;;;;;14.55;12.45;;;;;;;27.20;48.31;100548.00;1722761;83;21477;-90
2022/08/11 06:52:04;;;;;;;17.65;13.70;;;;;;;26.96;48.51;100558.79;1722691;83;20956;-90
2022/08/11 06:54:40;;;;;;;19.05;12.95;;;;;;;26.84;49.11;100567.44;1722578;83;20940;-90
2022/08/11 07:03:00;;;;;;;22.65;16.12;;;;;;;26.66;49.52;100563.12;1722865;82;21280;-91
2022/08/11 07:05:59;;;;;;;22.32;15.58;;;;;;;26.62;49.12;100569.92;1718319;83;20971;-92
2022/08/11 07:28:53;;;;;;;16.40;13.60;;;;;;;26.27;49.63;100577.94;1718588;83;21171;-93
2022/08/11 07:28:59;;;;;;;16.12;13.98;;;;;;;25.78;52.94;100594.88;1718259;83;21071;-93
2022/08/11 07:31:42;;;;;;;18.90;15.15;;;;;;;25.62;54.27;100598.13;1718271;83;21192;-93
2022/08/11 07:34:34;;;;;;;19.12;16.02;;;;;;;25.45;55.50;100596.70;1718324;83;20948;-94
2022/08/11 07:37:16;;;;;;;19.65;13.95;;;;;;;25.31;56.71;100597.59;1718129;83;20936;-92
2022/08/11 07:39:43;;;;;;;21.73;16.82;;;;;;;25.18;57.77;100595.03;1718262;83;20896;-92
2022/08/11 07:42:12;;;;;;;21.05;17.62;;;;;;;25.10;59.61;100596.51;1723065;82;20931;-93
2022/08/11 07:52:59;;;;;;;28.83;17.98;;;;;;;24.85;64.32;100597.30;1723851;83;20979;-93
2022/08/11 07:55:30;;;;;;;22.48;18.95;;;;;;;24.79;64.64;100599.41;1723613;82;20994;-93
2022/08/11 08:20:16;;;;;;;22.02;19.10;;;;;;;24.79;60.82;100604.26;1709869;84;20971;-93
2022/08/11 08:22:43;;;;;;;21.73;19.50;;;;;;;24.86;60.25;100604.34;1710030;82;20932;-92
2022/08/11 08:25:10;;;;;;;25.48;20.57;;;;;;;24.94;59.00;100598.86;1709995;84;21147;-91
2022/08/11 08:27:38;;;;;;;22.93;19.10;;;;;;;25.06;58.88;100603.27;1709683;84;20948;-94
2022/08/11 08:32:51;;;;;;;23.95;17.85;;;;;;;25.34;56.08;100598.03;1710021;84;20900;-93
2022/08/11 08:35:17;;;;;;;23.87;18.25;;;;;;;25.49;55.83;100593.97;1710138;84;20971;-93
2022/08/11 08:37:47;;;;;;;22.32;17.30;;;;;;;25.59;55.07;100602.56;1710527;84;21124;-92
2022/08/11 08:40:13;;;;;;;27.77;17.32;;;;;;;25.70;53.90;100592.30;1710273;84;20884;-92
2022/08/11 08:42:58;;;;;;;19.35;17.42;;;;;;;25.79;54.00;100587.98;1710151;82;21010;-92
2022/08/11 08:45:26;;;;;;;24.67;17.87;;;;;;;25.88;53.79;100592.73;1709484;83;21006;-92
2022/08/11 08:48:07;;;;;;;19.70;17.73;;;;;;;25.99;53.71;100583.30;1709896;84;20849;-92
2022/08/11 08:53:31;;;;;;;19.27;17.32;;;;;;;26.21;52.87;100573.34;1709719;84;20920;-91
2022/08/11 08:55:55;;;;;;;;;;;;;;;26.37;52.12;100577.58;1712107;83;21528;-91
2022/08/11 08:58:22;;;;;;;19.75;17.73;;;;;;;26.54;51.66;100568.17;1696450;84;20418;-92
2022/08/11 09:00:52;;;;;;;19.98;16.40;;;;;;;26.75;51.40;100574.02;1696234;84;20929;-91
2022/08/11 09:03:20;;;;;;;25.10;17.80;;;;;;;27.07;50.69;100573.02;1696152;84;21159;-91
2022/08/11 09:05:47;;;;;;;20.85;17.37;;;;;;;27.66;50.45;100570.19;1696225;84;20949;-90
2022/08/11 09:08:17;;;;;;;23.57;17.15;;;;;;;28.35;49.67;100572.99;1709547;84;20909;-90
2022/08/11 09:10:46;;;;;;;21.77;16.85;;;;;;;29.10;47.82;100570.73;1709211;84;20905;-92
2022/08/11 09:13:13;;;;;;;20.68;17.23;;;;;;;29.83;46.09;100576.19;1709237;83;20945;-90
2022/08/11 09:15:40;;;;;;;20.62;17.50;;;;;;;30.48;44.88;100568.22;1709168;83;21219;-87
2022/08/11 09:18:08;;;;;;;21.20;17.50;;;;;;;31.09;43.36;100569.20;1709369;84;20980;-91
2022/08/11 09:20:37;;;;;;;19.80;17.32;;;;;;;31.60;42.67;100566.51;1709373;84;20921;-90
2022/08/11 09:28:43;;;;;;;20.35;17.07;;;;;;;32.83;38.87;100567.44;1709214;83;21944;-90
2022/08/11 09:31:10;;;;;;;20.72;17.60;;;;;;;33.01;38.73;100565.61;1709263;84;21055;-93
2022/08/11 09:33:37;;;;;;;19.20;17.30;;;;;;;33.28;38.28;100563.69;1681657;84;21000;-90
2022/08/11 09:40:27;;;;;;;19.82;17.27;;;;;;;33.64;38.02;100563.83;1709226;84;20905;-88
2022/08/11 09:41:18;;;;;;;18.37;15.85;;;;;;;34.45;37.10;100558.78;1709472;83;21167;-91
2022/08/11 09:46:31;;;;;;;17.87;16.02;;;;;;;35.33;36.39;100551.64;1709486;83;20900;-91
2022/08/11 09:49:00;;;;;;;18.45;16.52;;;;;;;35.78;35.86;100542.23;1709456;84;21485;-90
2022/08/11 09:51:30;;;;;;;20.52;17.17;;;;;;;36.18;34.64;100549.08;1709430;84;21481;-91
2022/08/11 09:53:57;;;;;;;29.48;16.73;;;;;;;36.48;33.68;100555.22;1709735;84;21132;-90
2022/08/11 09:59:09;;;;;;;21.42;18.65;;;;;;;37.05;33.53;100542.59;1709239;83;20968;-92
2022/08/11 10:01:44;;;;;;;20.25;16.80;;;;;;;37.30;31.90;100547.30;1705092;83;20965;-91
2022/08/11 10:04:18;;;;;;;27.17;18.23;;;;;;;37.40;31.88;100539.11;1712120;83;20929;-89
2022/08/11 10:07:03;;;;;;;25.92;18.52;;;;;;;37.63;32.04;100542.42;1722953;83;21176;-90
2022/08/11 10:09:48;;;;;;;21.02;17.35;;;;;;;37.82;30.93;100546.23;1723326;83;21401;-91
2022/08/11 10:12:24;;;;;;;20.50;18.37;;;;;;;38.08;31.16;100547.57;1722853;83;20892;-92
2022/08/11 10:18:40;;;;;;;19.33;17.53;;;;;;;38.59;29.82;100534.27;1723188;83;20872;-91
2022/08/11 10:20:13;;;;;;;21.27;17.92;;;;;;;38.81;28.72;100538.81;1693336;83;21156;-90
2022/08/11 10:28:11;;;;;;;17.60;15.93;;;;;;;38.99;28.06;100544.77;1722959;83;20919;-92
2022/08/11 10:36:08;;;;;;;19.42;17.80;;;;;;;39.00;28.32;100542.28;1722979;83;21515;-91
2022/08/11 10:38:34;;;;;;;19.40;17.37;;;;;;;39.02;28.40;100528.58;1722434;83;21357;-93
2022/08/11 10:43:47;;;;;;;19.25;17.20;;;;;;;39.35;29.00;100531.60;1696270;83;20908;-90
2022/08/11 10:48:58;;;;;;;19.12;17.30;;;;;;;39.65;26.95;100529.74;1722633;82;20935;-90
2022/08/11 10:59:41;;;;;;;20.10;17.45;;;;;;;39.77;26.13;100527.41;1722720;83;21153;-92
2022/08/11 11:02:15;;;;;;;19.07;17.32;;;;;;;39.74;25.56;100528.00;1722662;83;21007;-92
2022/08/11 11:05:08;;;;;;;20.92;17.60;;;;;;;39.63;25.47;100534.70;1718016;82;20900;-91
2022/08/11 11:08:51;;;;;;;19.87;16.62;;;;;;;39.56;25.56;100522.69;1709514;84;20908;-91
2022/08/11 11:10:32;;;;;;;21.33;16.85;;;;;;;39.59;25.64;100534.45;1660759;83;21461;-91
2022/08/11 11:18:34;;;;;;;21.10;17.42;;;;;;;39.30;24.97;100526.98;1657665;85;20957;-91
2022/08/11 11:21:07;;;;;;;20.52;17.80;;;;;;;39.08;25.09;100520.55;1635178;85;20912;-91
2022/08/11 11:24:03;;;;;;;21.10;18.95;;;;;;;38.90;25.28;100533.55;1657509;85;21037;-91
2022/08/11 11:26:55;;;;;;;19.90;17.62;;;;;;;38.84;25.18;100526.45;1657764;85;21281;-91
2022/08/11 11:29:30;;;;;;;21.50;18.10;;;;;;;38.71;24.77;100527.89;1657771;85;20944;-92
2022/08/11 11:32:30;;;;;;;18.98;17.07;;;;;;;38.60;24.46;100523.56;1657523;85;20992;-91
2022/08/11 11:35:36;;;;;;;21.15;18.95;;;;;;;38.48;24.75;100523.91;1657737;85;21012;-92
2022/08/11 11:38:08;;;;;;;20.68;16.90;;;;;;;38.34;25.49;100527.77;1657507;85;20900;-91
2022/08/11 11:40:36;;;;;;;19.07;17.17;;;;;;;38.24;25.44;100536.83;1615714;86;21303;-91
2022/08/11 11:43:02;;;;;;;21.45;16.62;;;;;;;38.18;25.98;100539.86;1657670;85;20896;-92
2022/08/11 11:45:29;;;;;;;21.65;16.42;;;;;;;38.06;25.97;100540.18;1696388;84;20936;-92
2022/08/11 11:47:58;;;;;;;18.05;15.28;;;;;;;37.83;26.62;100534.73;1709743;84;20932;-92
2022/08/11 11:50:33;;;;;;;20.17;16.57;;;;;;;37.63;27.01;100547.34;1710357;84;21015;-92
2022/08/11 11:53:03;;;;;;;16.35;14.73;;;;;;;37.40;27.72;100542.37;1709873;83;21535;-91
2022/08/11 11:55:30;;;;;;;17.25;15.48;;;;;;;37.10;28.34;100542.08;1688607;84;20861;-90
2022/08/11 12:03:37;;;;;;;19.30;14.35;;;;;;;36.03;29.64;100549.77;1710145;84;20913;-92
2022/08/11 12:06:03;;;;;;;24.55;14.07;;;;;;;35.71;30.38;100549.28;1715840;83;22159;-92
2022/08/11 12:08:29;;;;;;;20.23;14.07;;;;;;;35.48;30.75;100544.95;1717242;83;20888;-92
2022/08/11 12:13:49;;;;;;;17.45;14.78;;;;;;;35.09;31.84;100539.13;1694212;83;20958;-92
2022/08/11 12:16:19;;;;;;;25.02;21.97;;;;;;;34.85;32.03;100539.95;1717132;83;20935;-90
2022/08/11 12:18:48;;;;;;;19.12;15.43;;;;;;;34.55;32.53;100544.49;1717223;83;21141;-92
2022/08/11 12:21:15;;;;;;;15.95;14.30;;;;;;;34.32;32.94;100548.26;1717415;83;20888;-92
2022/08/11 12:29:18;;;;;;;16.42;14.87;;;;;;;33.88;34.59;100541.33;1717277;83;21050;-89
2022/08/11 12:31:46;;;;;;;22.58;17.05;;;;;;;33.73;34.53;100542.45;1717438;83;21252;-91
2022/08/11 12:34:15;;;;;;;17.62;15.65;;;;;;;33.56;34.54;100539.72;1716943;83;20896;-92
2022/08/11 12:36:46;;;;;;;17.85;14.90;;;;;;;33.39;34.66;100542.41;1717294;83;20923;-91
2022/08/11 12:39:17;;;;;;;24.10;16.12;;;;;;;33.28;35.20;100545.48;1717544;82;20900;-93
2022/08/11 12:47:18;;;;;;;20.37;16.12;;;;;;;32.94;36.32;100537.77;1717273;83;20905;-94
2022/08/11 12:52:43;;;;;;;20.90;16.12;;;;;;;32.66;36.35;100537.20;1717332;83;20880;-91
2022/08/11 12:58:14;;;;;;;17.87;16.00;;;;;;;32.47;36.79;100530.55;1717363;83;20963;-92
2022/08/11 13:06:05;;;;;;;22.07;17.82;;;;;;;32.04;39.29;100528.23;1748778;82;20936;-93
2022/08/11 13:08:38;;;;;;;17.20;15.50;;;;;;;31.93;40.17;100525.27;1746829;82;20892;-94
2022/08/11 13:17:21;;;;;;;19.42;14.90;;;;;;;31.68;41.31;100522.77;1696584;80;21143;31
2022/08/11 13:19:48;;;;;;;20.05;16.42;;;;;;;31.62;41.61;100536.43;1593626;87;20963;-85
2022/08/11 13:22:17;;;;;;;20.40;17.35;;;;;;;31.53;41.42;100523.77;1618390;87;21022;-84
2022/08/11 13:24:44;;;;;;;18.67;15.48;;;;;;;31.45;41.38;100522.74;1618124;87;22551;-85
2022/08/11 13:27:12;;;;;;;16.97;15.15;;;;;;;31.38;40.88;100522.28;1617945;88;21456;-84
2022/08/11 13:29:40;;;;;;;17.10;15.58;;;;;;;31.34;41.05;100521.09;1618102;87;20930;-85
2022/08/11 13:32:07;;;;;;;21.25;16.07;;;;;;;31.30;40.78;100519.08;1591441;87;21054;-85
2022/08/11 13:34:40;;;;;;;18.73;14.47;;;;;;;31.25;40.77;100522.48;1618083;87;21034;-84
2022/08/11 13:37:04;;;;;;;16.00;14.45;;;;;;;31.18;40.70;100509.03;1617502;87;21281;-84
2022/08/11 13:39:31;;;;;;;178.30;161.05;;;;;;;31.14;40.87;100515.14;1617902;87;20963;-85
2022/08/11 13:41:59;;;;;;;22.35;19.95;;;;;;;31.09;40.76;100507.71;1617873;88;20935;-86
2022/08/11 13:44:28;;;;;;;20.02;17.07;;;;;;;31.06;40.17;100508.69;1617927;87;20967;-84
2022/08/11 13:46:59;;;;;;;19.37;16.95;;;;;;;31.04;40.26;100509.44;1618043;87;20939;-85
2022/08/11 13:49:26;;;;;;;20.23;16.57;;;;;;;31.00;40.04;100507.73;1618002;87;21264;-85
2022/08/11 13:51:53;;;;;;;16.97;14.87;;;;;;;31.01;40.19;100512.63;1618005;87;21049;-85
2022/08/11 13:54:30;;;;;;;25.00;15.95;;;;;;;30.98;40.40;100511.20;1617976;87;20927;-84
2022/08/11 13:57:03;;;;;;;16.10;14.47;;;;;;;30.96;40.89;100511.42;1617961;87;20963;-84
2022/08/11 13:59:30;;;;;;;23.75;14.07;;;;;;;30.95;40.38;100513.03;1617994;87;20970;-85
2022/08/11 14:02:02;;;;;;;19.15;14.73;;;;;;;30.91;40.30;100507.23;1618097;88;21138;-85
2022/08/11 14:04:47;;;;;;;15.15;13.60;;;;;;;30.84;40.11;100509.18;1618273;87;20903;-86
2022/08/11 14:07:18;;;;;;;14.23;12.70;;;;;;;30.80;40.30;100506.62;1617828;88;20970;-86
2022/08/11 14:09:44;;;;;;;16.90;13.35;;;;;;;30.72;40.36;100508.28;1618058;88;20951;-84
2022/08/11 14:15:09;;;;;;;18.80;13.90;;;;;;;30.59;40.68;100497.09;1618349;87;21232;-85
2022/08/11 14:17:38;;;;;;;14.30;12.45;;;;;;;30.53;41.00;100492.08;1618289;86;20967;-84
2022/08/11 14:20:07;;;;;;;16.35;14.85;;;;;;;30.49;40.81;100492.22;1626295;87;21017;-86
2022/08/11 14:22:35;;;;;;;16.10;14.25;;;;;;;30.46;41.01;100485.92;1629685;86;20934;-85
2022/08/11 14:25:02;;;;;;;17.55;15.35;;;;;;;30.45;40.75;100482.08;1626287;87;20988;-84
2022/08/11 14:27:30;;;;;;;19.02;15.08;;;;;;;30.44;41.02;100480.41;1626405;87;21334;-84
2022/08/11 14:29:57;;;;;;;15.75;14.07;;;;;;;30.45;41.39;100484.79;1626367;87;21415;-83
2022/08/11 14:32:23;;;;;;;15.00;13.60;;;;;;;30.45;41.42;100486.14;1626428;87;20938;-84
2022/08/11 14:34:50;;;;;;;20.68;13.68;;;;;;;30.43;41.42;100475.53;1626323;87;20954;-84
2022/08/11 14:37:22;;;;;;;18.20;14.25;;;;;;;30.42;41.60;100473.89;1626422;88;20957;-84
2022/08/11 14:39:58;;;;;;;18.42;14.43;;;;;;;30.43;41.71;100484.19;1626262;87;21083;-84
2022/08/11 14:48:04;;;;;;;16.82;14.98;;;;;;;30.34;40.92;100468.24;1626178;87;21676;-84
2022/08/11 14:50:32;;;;;;;17.80;15.13;;;;;;;30.28;40.91;100461.05;1626504;87;20882;-83
2022/08/11 14:53:03;;;;;;;18.30;14.98;;;;;;;30.24;40.65;100466.58;1626483;88;21095;-83
2022/08/11 14:58:24;;;;;;;17.80;16.02;;;;;;;30.18;40.33;100457.19;1626380;87;20981;-85
2022/08/11 15:00:59;;;;;;;16.62;14.75;;;;;;;30.13;40.52;100446.52;1626311;88;20913;-85
2022/08/11 15:03:29;;;;;;;19.82;14.30;;;;;;;30.10;40.40;100446.13;1626387;87;21013;-84
2022/08/11 15:05:58;;;;;;;17.52;15.18;;;;;;;30.07;40.51;100449.30;1626335;87;21509;-85
2022/08/11 15:14:10;;;;;;;23.10;15.58;;;;;;;29.96;40.33;100444.92;1626869;87;20938;-83
2022/08/11 15:19:31;;;;;;;31.00;27.90;;;;;;;29.93;39.90;100447.27;1607056;87;21142;-85
2022/08/11 15:24:45;;;;;;;21.48;15.28;;;;;;;29.92;39.74;100453.17;1593455;89;20971;-84
2022/08/11 15:38:13;;;;;;;17.48;15.68;;;;;;;29.90;40.29;100448.55;1593479;89;20980;-84
2022/08/11 15:46:44;;;;;;;19.12;15.13;;;;;;;29.85;40.46;100455.13;1593253;89;21932;-84
2022/08/11 15:49:22;;;;;;;21.45;15.32;;;;;;;29.84;40.64;100460.25;1593260;89;21051;-83
2022/08/11 15:52:07;;;;;;;24.27;21.73;;;;;;;29.83;40.77;100455.05;1593403;89;20960;-84
2022/08/11 15:54:39;;;;;;;16.27;14.25;;;;;;;29.78;40.66;100458.42;1593522;89;21004;-83
2022/08/11 15:57:05;;;;;;;14.85;13.28;;;;;;;29.74;40.69;100458.03;1593519;89;20973;-83
2022/08/11 16:04:53;;;;;;;15.88;14.47;;;;;;;29.63;41.08;100457.91;1593441;89;20972;-85
2022/08/11 16:07:28;;;;;;;16.30;14.40;;;;;;;29.58;40.93;100463.98;1593278;89;20944;-85
2022/08/11 16:10:14;;;;;;;18.37;13.05;;;;;;;29.53;41.23;100471.94;1593569;89;21025;-84
2022/08/11 16:18:39;;;;;;;15.53;13.65;;;;;;;29.34;41.55;100481.31;1595210;88;20952;-85
2022/08/11 16:20:54;;;;;;;33.13;30.10;;;;;;;29.28;41.35;100495.72;1624523;87;21024;-85
2022/08/11 16:23:24;;;;;;;19.90;14.63;;;;;;;29.20;41.46;100489.22;1626482;87;20949;-88
2022/08/11 16:25:49;;;;;;;25.35;14.05;;;;;;;29.15;41.59;100491.75;1626351;88;21274;-84
2022/08/11 16:28:16;;;;;;;16.90;14.50;;;;;;;29.10;41.47;100491.55;1626377;87;21046;-84
2022/08/11 16:30:43;;;;;;;14.78;13.28;;;;;;;29.06;41.84;100493.00;1626507;87;20934;-85
2022/08/11 16:33:09;;;;;;;16.42;14.83;;;;;;;29.02;41.69;100503.42;1626259;87;20937;-85
2022/08/11 16:38:38;;;;;;;18.10;14.93;;;;;;;28.94;42.06;100496.91;1626600;87;21249;-87
2022/08/11 16:41:11;;;;;;;15.32;13.72;;;;;;;28.88;42.43;100505.88;1626446;87;21467;-84
2022/08/11 16:49:31;;;;;;;15.63;13.20;;;;;;;28.71;42.92;100515.00;1600339;87;20965;-86
2022/08/11 16:52:02;;;;;;;14.73;13.00;;;;;;;28.65;42.81;100521.25;1626480;87;21137;-85
2022/08/11 16:54:28;;;;;;;15.55;12.98;;;;;;;28.60;43.12;100523.77;1626436;87;20925;-84
2022/08/11 16:56:55;;;;;;;16.90;13.45;;;;;;;28.54;43.13;100515.98;1626608;87;20946;-85